Weather reports worldwide

Advertisment
Monks wood, United Kingdom (99078): temperature & dewpoint: 17.03.2019 09:00:00 - 23.03.2019 09:00:00 (GMT)Monks wood, United Kingdom (99078): temperature -20cm & temperature -100cm: 17.03.2019 09:00:00 - 23.03.2019 09:00:00 (GMT)Monks wood, United Kingdom (99078): wind speed & gusts: 17.03.2019 09:00:00 - 23.03.2019 09:00:00 (GMT)Monks wood, United Kingdom (99078): wind direction: 17.03.2019 09:00:00 - 23.03.2019 09:00:00 (GMT)Monks wood, United Kingdom (99078): precipitation: 17.03.2019 09:00:00 - 23.03.2019 09:00:00 (GMT)
Date & Time tt [°C] td [°C] tt -20cm [°C] tt -100cm [°C] ff [km/h] ff [kn] fx [km/h] fx [kn] dd rr [mm]
23.03.2019 09:00:00 9,2 1,2 - - 8 4 - - N -
23.03.2019 08:00:00 8,7 2,8 - - 5 3 - - N 0,0
23.03.2019 07:00:00 7,9 2,8 - - 2 1 - - N 0,0
23.03.2019 06:00:00 8,4 4,0 - - 5 3 - - NNE 0,0
23.03.2019 05:00:00 8,7 6,2 - - 4 2 - - NNE 0,0
23.03.2019 04:00:00 8,8 6,4 - - 2 1 - - NNE 0,0
23.03.2019 03:00:00 9,0 6,7 - - 2 1 - - NW 0,0
23.03.2019 02:00:00 8,3 6,9 - - 8 4 - - WSW 0,0
23.03.2019 01:00:00 7,1 6,1 - - 9 5 - - SW 0,0
23.03.2019 00:00:00 7,5 6,5 - - 11 6 - - SW 0,0
22.03.2019 23:00:00 7,3 6,4 - - 9 5 - - SW 0,0
22.03.2019 22:00:00 7,3 6,4 - - 11 6 - - SW 0,0
22.03.2019 21:00:00 8,3 5,4 - - 8 4 - - SW 0,0
22.03.2019 20:00:00 10,6 6,9 - - 11 6 - - SW 0,0
22.03.2019 19:00:00 11,2 6,3 - - 13 7 - - WSW 0,0
22.03.2019 18:00:00 11,3 7,2 - - 11 6 - - WSW 0,0
22.03.2019 17:00:00 11,5 7,4 - - 15 8 - - SW 0,0
22.03.2019 16:00:00 11,8 7,5 - - 22 12 - - SW 0,0
22.03.2019 15:00:00 11,9 7,9 - - 21 11 - - SW 0,0
22.03.2019 14:00:00 11,3 7,1 - - 22 12 - - SW 0,0
22.03.2019 13:00:00 11,1 7,3 - - 18 10 - - SW 0,0
22.03.2019 12:00:00 10,3 7,2 - - 18 10 - - SW 0,0
22.03.2019 11:00:00 10,2 7,1 - - 22 12 - - SW 0,0
22.03.2019 10:00:00 9,8 7,0 - - 18 10 - - SW 0,0
22.03.2019 09:00:00 9,7 7,0 9,2 8,2 15 8 - - SW 0,0
22.03.2019 08:00:00 9,6 6,6 - - 18 10 - - SW 0,0
22.03.2019 07:00:00 9,8 7,2 - - 11 6 - - SSW 0,0
22.03.2019 06:00:00 10,0 7,6 - - 11 6 - - SSW 0,0
22.03.2019 05:00:00 10,2 7,7 - - 11 6 - - SSW 0,0
22.03.2019 04:00:00 10,1 8,4 - - 9 5 - - SSW 0,0
22.03.2019 03:00:00 10,0 8,5 - - 4 2 - - S 0,0
22.03.2019 02:00:00 10,0 8,6 - - 5 3 - - SSW 0,0
22.03.2019 01:00:00 10,0 8,6 - - 8 4 - - SSW 0,0
22.03.2019 00:00:00 10,3 8,7 - - 5 3 - - SW 0,0
21.03.2019 23:00:00 10,3 8,7 - - 5 3 - - SSW 0,0
21.03.2019 22:00:00 10,4 8,6 - - 8 4 - - SW 0,0
21.03.2019 21:00:00 10,2 8,4 - - 8 4 - - SW 0,0
21.03.2019 20:00:00 10,7 8,6 - - 9 5 - - SSW 0,0
21.03.2019 19:00:00 11,2 9,0 - - 9 5 - - SW 0,0
21.03.2019 18:00:00 12,1 9,1 - - 9 5 - - SSW 0,0
21.03.2019 17:00:00 13,9 9,4 - - 11 6 - - SSW 0,0
21.03.2019 16:00:00 15,0 9,8 - - 9 5 - - SW 0,0
21.03.2019 15:00:00 15,1 9,8 - - 11 6 - - SSW 0,0
21.03.2019 14:00:00 15,2 10,3 - - 13 7 - - SW 0,0
21.03.2019 13:00:00 14,0 9,8 - - 13 7 - - SW 0,0
21.03.2019 12:00:00 14,0 9,7 - - 11 6 - - WSW 0,0
21.03.2019 11:00:00 14,5 10,5 - - 8 4 - - W 0,0
21.03.2019 10:00:00 12,5 9,5 - - 11 6 - - WSW 0,0
21.03.2019 09:00:00 11,0 9,0 8,7 8,0 9 5 - - WSW 0,2
21.03.2019 08:00:00 8,8 8,4 - - 9 5 - - SW 0,0
21.03.2019 07:00:00 7,3 7,2 - - 9 5 - - SW 0,0
21.03.2019 06:00:00 7,8 7,6 - - 11 6 - - SW 0,0
21.03.2019 05:00:00 8,1 7,8 - - 11 6 - - SW 0,0
21.03.2019 04:00:00 8,3 8,1 - - 11 6 - - WSW 0,0
21.03.2019 03:00:00 8,1 7,9 - - 15 8 - - SW 0,0
21.03.2019 02:00:00 8,0 7,8 - - 18 10 - - WSW 0,0
21.03.2019 01:00:00 6,8 6,2 - - 15 8 - - SSW 0,0
21.03.2019 00:00:00 7,2 6,5 - - 15 8 - - SSW 0,0
20.03.2019 23:00:00 8,0 6,8 - - 11 6 - - SSW 0,0
20.03.2019 22:00:00 8,3 6,9 - - 15 8 - - SW 0,0
20.03.2019 21:00:00 8,5 6,9 - - 13 7 - - SSW 0,0
20.03.2019 20:00:00 9,3 7,5 - - 13 7 - - SW 0,0
20.03.2019 19:00:00 10,0 7,6 - - 9 5 - - SSW 0,0
20.03.2019 18:00:00 11,6 8,0 - - 15 8 - - SW 0,0
20.03.2019 17:00:00 12,5 8,2 - - 15 8 - - SSW 0,0
20.03.2019 16:00:00 13,4 8,5 - - 18 10 - - SW 0,0
20.03.2019 15:00:00 14,0 9,3 - - 18 10 - - SW 0,0
20.03.2019 14:00:00 13,6 8,9 - - 18 10 - - SSW 0,0
20.03.2019 13:00:00 13,3 9,2 - - 15 8 - - SW 0,0
20.03.2019 12:00:00 13,2 9,2 - - 15 8 - - SW 0,0
20.03.2019 11:00:00 11,9 9,0 - - 15 8 - - SW 0,0
20.03.2019 10:00:00 10,7 9,2 - - 11 6 - - SW 0,0
20.03.2019 09:00:00 9,0 8,0 8,2 7,9 11 6 - - SW 0,0
20.03.2019 08:00:00 7,8 7,2 - - 13 7 - - SW 0,0
20.03.2019 07:00:00 7,0 6,6 - - 11 6 - - SW 0,0
20.03.2019 06:00:00 6,6 6,3 - - 13 7 - - SSW 0,0
20.03.2019 05:00:00 6,2 6,0 - - 11 6 - - SW 0,0
20.03.2019 04:00:00 5,9 5,4 - - 9 5 - - SSW 0,0
20.03.2019 03:00:00 6,4 5,9 - - 9 5 - - SW 0,0
20.03.2019 02:00:00 6,0 5,2 - - 9 5 - - SW 0,0
20.03.2019 01:00:00 6,2 5,1 - - 9 5 - - SSW 0,0
20.03.2019 00:00:00 7,5 5,7 - - 8 4 - - SSW 0,0
19.03.2019 23:00:00 9,3 6,8 - - 9 5 - - SW 0,0
19.03.2019 22:00:00 9,0 6,9 - - 11 6 - - SW 0,0
19.03.2019 21:00:00 10,3 7,7 - - 13 7 - - SW 0,0
19.03.2019 20:00:00 10,1 7,6 - - 11 6 - - SW 0,0
19.03.2019 19:00:00 11,0 7,8 - - 11 6 - - SW 0,0
19.03.2019 18:00:00 11,5 8,0 - - 9 5 - - SW 0,0
19.03.2019 17:00:00 11,8 7,9 - - 13 7 - - SW 0,0
19.03.2019 16:00:00 12,1 7,5 - - 15 8 - - SW 0,0
19.03.2019 15:00:00 11,9 7,0 - - 16 9 - - SW 0,0
19.03.2019 14:00:00 12,0 7,5 - - 15 8 - - SW 0,0
19.03.2019 13:00:00 12,7 6,7 - - 13 7 - - SW 0,0
19.03.2019 12:00:00 13,2 8,5 - - 11 6 - - SW 0,0
19.03.2019 11:00:00 11,4 7,0 - - 13 7 - - WSW 0,0
19.03.2019 10:00:00 11,5 7,2 - - 9 5 - - WSW 0,0
19.03.2019 09:00:00 10,2 7,4 7,9 7,9 8 4 - - W 0,0
19.03.2019 08:00:00 8,1 7,1 - - 8 4 - - WSW 0,0
19.03.2019 07:00:00 6,9 6,2 - - 8 4 - - SSW 0,0
19.03.2019 06:00:00 6,6 5,9 - - 8 4 - - SSW 0,0
19.03.2019 05:00:00 6,6 5,8 - - 5 3 - - S 0,0
19.03.2019 04:00:00 6,5 5,9 - - 5 3 - - SW 0,0
19.03.2019 03:00:00 6,6 5,9 - - 5 3 - - SW 0,0
19.03.2019 02:00:00 6,1 5,2 - - 8 4 - - SW 0,0
19.03.2019 01:00:00 6,5 5,1 - - 8 4 - - S 0,0
19.03.2019 00:00:00 6,6 5,0 - - 5 3 - - SSW 0,0
18.03.2019 23:00:00 6,5 4,9 - - 5 3 - - SW 0,0
18.03.2019 22:00:00 6,6 4,7 - - 5 3 - - SSW 0,0
18.03.2019 21:00:00 6,4 4,5 - - 8 4 - - SSW 0,0
18.03.2019 20:00:00 5,3 3,8 - - 5 3 - - SSW 0,0
18.03.2019 19:00:00 6,1 2,8 - - 5 3 - - WSW 0,0
18.03.2019 18:00:00 8,4 2,6 - - 5 3 - - W 0,0
18.03.2019 17:00:00 10,3 2,7 - - 8 4 - - W 0,0
18.03.2019 16:00:00 10,5 2,9 - - 8 4 - - W 0,0
18.03.2019 15:00:00 9,9 1,5 - - 13 7 - - W 0,0
18.03.2019 14:00:00 10,3 2,4 - - 5 3 - - WNW 0,0
18.03.2019 13:00:00 9,5 2,2 - - 9 5 - - W 0,0
18.03.2019 12:00:00 10,4 3,3 - - 11 6 - - W 0,0
18.03.2019 11:00:00 10,0 4,3 - - 9 5 - - W 0,0
18.03.2019 10:00:00 8,1 3,5 - - 9 5 - - W 0,0
18.03.2019 09:00:00 6,7 4,0 7,7 7,9 9 5 - - WSW 0,0
18.03.2019 08:00:00 4,9 2,9 - - 8 4 - - WSW 0,0
18.03.2019 07:00:00 4,3 2,6 - - 9 5 - - W 0,0
18.03.2019 06:00:00 4,1 2,7 - - 9 5 - - W 0,0
18.03.2019 05:00:00 4,4 2,3 - - 5 3 - - W 0,0
18.03.2019 04:00:00 4,1 2,2 - - 8 4 - - W 0,0
18.03.2019 03:00:00 4,7 2,6 - - 8 4 - - W 0,0
18.03.2019 02:00:00 4,6 3,1 - - 8 4 - - W 0,0
18.03.2019 01:00:00 4,9 3,2 - - 8 4 - - WNW 0,0
18.03.2019 00:00:00 5,0 3,2 - - 8 4 - - W 0,0
17.03.2019 23:00:00 5,0 2,7 - - 5 3 - - W 0,0
17.03.2019 22:00:00 5,5 2,5 - - 11 6 - - WSW 0,0
17.03.2019 21:00:00 5,4 2,0 - - 9 5 - - W 0,0
17.03.2019 20:00:00 6,0 2,0 - - 11 6 - - W 0,0
17.03.2019 19:00:00 5,5 1,2 - - 11 6 - - WSW 0,0
17.03.2019 18:00:00 6,6 1,4 - - 9 5 - - W 0,0
17.03.2019 17:00:00 8,2 1,0 - - 21 11 - - WSW 0,0
17.03.2019 16:00:00 8,3 2,0 - - 15 8 - - W 0,0
17.03.2019 15:00:00 5,3 2,5 - - 13 7 48 26 W 0,6
17.03.2019 14:00:00 8,1 1,1 - - 21 11 - - W 0,0
17.03.2019 13:00:00 8,9 -1,7 - - 16 9 - - W 0,0
17.03.2019 12:00:00 7,3 -1,2 - - 15 8 - - W 0,0
17.03.2019 11:00:00 7,6 0,7 - - 16 9 - - W 0,0
17.03.2019 10:00:00 6,7 0,9 - - 16 9 - - W 0,0
17.03.2019 09:00:00 5,9 1,9 8,0 7,7 21 11 - - WSW 0,0

tt = temperature
td = dewpoint
tt -20cm = temperature -20cm
tt -100cm = temperature -100cm
ff = wind speed
fx = gusts
dd = wind direction
rr = precipitation

Next stations